createdAt,value
2022-11-25T00:01:24.822Z,3.43
2022-11-25T00:03:53.916Z,4.23
2022-11-25T00:06:21.906Z,3.60
2022-11-25T00:08:51.559Z,4.23
2022-11-25T00:11:18.904Z,4.00
2022-11-25T00:13:47.005Z,4.03
2022-11-25T00:16:16.217Z,4.13
2022-11-25T00:18:47.363Z,3.60
2022-11-25T00:21:16.492Z,3.77
2022-11-25T00:23:43.459Z,3.27
2022-11-25T00:26:15.071Z,4.27
2022-11-25T00:28:43.801Z,3.73
2022-11-25T00:31:13.358Z,3.33
2022-11-25T00:33:40.452Z,3.53
2022-11-25T00:36:14.825Z,3.63
2022-11-25T00:38:41.546Z,4.13
2022-11-25T00:41:26.768Z,3.33
2022-11-25T00:44:12.345Z,3.93
2022-11-25T00:46:39.142Z,4.70
2022-11-25T00:49:05.929Z,3.93
2022-11-25T00:51:32.672Z,3.70
2022-11-25T00:53:59.429Z,4.10
2022-11-25T00:56:26.723Z,4.60
2022-11-25T00:58:54.185Z,3.30
2022-11-25T01:01:21.068Z,4.20
2022-11-25T01:03:52.482Z,4.10
2022-11-25T01:06:19.850Z,4.67
2022-11-25T01:08:46.678Z,4.03
2022-11-25T01:11:15.530Z,4.60
2022-11-25T01:13:42.280Z,3.73
2022-11-25T01:16:11.469Z,4.90
2022-11-25T01:18:38.264Z,4.70
2022-11-25T01:21:19.664Z,5.33
2022-11-25T01:23:47.058Z,4.27
2022-11-25T01:26:16.531Z,4.03
2022-11-25T01:28:43.522Z,4.77
2022-11-25T01:31:11.508Z,4.20
2022-11-25T01:33:38.755Z,4.47
2022-11-25T01:36:10.831Z,4.53
2022-11-25T01:38:37.754Z,5.03
2022-11-25T01:41:05.908Z,5.00
2022-11-25T01:43:32.644Z,4.30
2022-11-25T01:46:22.695Z,5.20
2022-11-25T01:48:55.216Z,4.90
2022-11-25T01:51:55.912Z,5.17
2022-11-25T01:54:28.215Z,5.10
2022-11-25T01:57:03.917Z,4.90
2022-11-25T01:59:33.771Z,5.47
2022-11-25T02:02:00.965Z,4.67
2022-11-25T02:04:33.968Z,5.07
2022-11-25T02:07:29.839Z,4.87
2022-11-25T02:09:57.422Z,5.13
2022-11-25T02:12:24.435Z,4.77
2022-11-25T02:14:53.662Z,5.13
2022-11-25T02:17:20.720Z,5.27
2022-11-25T02:20:03.822Z,5.13
2022-11-25T02:23:06.953Z,5.40
2022-11-25T02:25:36.270Z,5.80
2022-11-25T02:28:19.880Z,5.50
2022-11-25T02:30:47.329Z,4.47
2022-11-25T02:33:15.784Z,4.13
2022-11-25T02:36:03.698Z,5.17
2022-11-25T02:38:47.422Z,4.63
2022-11-25T02:41:22.901Z,4.80
2022-11-25T02:43:49.585Z,4.70
2022-11-25T02:46:22.427Z,4.83
2022-11-25T02:49:09.232Z,5.50
2022-11-25T02:51:38.785Z,4.77
2022-11-25T02:54:06.364Z,4.53
2022-11-25T02:56:35.119Z,4.87
2022-11-25T02:59:02.894Z,5.27
2022-11-25T03:01:31.492Z,5.47
2022-11-25T03:03:59.065Z,4.80
2022-11-25T03:06:25.752Z,4.83
2022-11-25T03:08:52.466Z,5.23
2022-11-25T03:11:19.236Z,4.93
2022-11-25T03:13:45.928Z,5.17
2022-11-25T03:16:12.668Z,6.47
2022-11-25T03:18:39.404Z,4.87
2022-11-25T03:21:07.322Z,4.90
2022-11-25T03:23:34.140Z,5.20
2022-11-25T03:26:05.656Z,5.43
2022-11-25T03:28:32.333Z,5.63
2022-11-25T03:30:59.014Z,4.83
2022-11-25T03:33:25.776Z,5.43
2022-11-25T03:35:52.451Z,5.60
2022-11-25T03:38:19.185Z,6.17
2022-11-25T03:40:47.356Z,5.97
2022-11-25T03:43:14.037Z,6.63
2022-11-25T03:45:40.840Z,5.37
2022-11-25T03:48:07.609Z,5.13
2022-11-25T03:50:34.444Z,5.20
2022-11-25T03:53:01.126Z,5.13
2022-11-25T03:55:27.838Z,5.07
2022-11-25T03:57:54.613Z,4.67
2022-11-25T04:00:21.371Z,5.37
2022-11-25T04:02:48.138Z,4.77
2022-11-25T04:05:14.928Z,5.87
2022-11-25T04:07:41.736Z,5.80
2022-11-25T04:10:09.201Z,5.43
2022-11-25T04:12:48.059Z,5.23
2022-11-25T04:15:16.940Z,5.40
2022-11-25T04:17:43.756Z,6.10
2022-11-25T04:20:11.727Z,6.97
2022-11-25T04:22:38.448Z,5.10
2022-11-25T04:25:05.824Z,5.30
2022-11-25T04:27:32.560Z,5.53
2022-11-25T04:29:59.309Z,5.40
2022-11-25T04:32:26.040Z,5.27
2022-11-25T04:34:52.792Z,5.93
2022-11-25T04:37:19.637Z,5.30
2022-11-25T04:39:46.453Z,4.83
2022-11-25T04:42:31.739Z,5.77
2022-11-25T04:45:21.458Z,5.53
2022-11-25T04:47:46.301Z,6.10
2022-11-25T04:50:17.137Z,5.30
2022-11-25T04:52:43.903Z,5.50
2022-11-25T04:55:10.757Z,5.07
2022-11-25T04:57:37.891Z,4.83
2022-11-25T05:00:05.501Z,4.53
2022-11-25T05:02:32.411Z,4.50
2022-11-25T05:04:59.599Z,5.77
2022-11-25T05:07:28.360Z,4.77
2022-11-25T05:09:55.706Z,5.30
2022-11-25T05:12:26.924Z,5.70
2022-11-25T05:14:54.177Z,5.27
2022-11-25T05:17:26.800Z,5.47
2022-11-25T05:19:53.663Z,4.90
2022-11-25T05:22:23.759Z,5.07
2022-11-25T05:24:50.641Z,4.53
2022-11-25T05:27:18.274Z,5.00
2022-11-25T05:29:45.367Z,5.30
2022-11-25T05:32:12.715Z,5.37
2022-11-25T05:34:42.365Z,5.27
2022-11-25T05:37:10.570Z,4.33
2022-11-25T05:39:37.348Z,3.90
2022-11-25T05:42:04.391Z,3.10
2022-11-25T05:44:31.082Z,4.23
2022-11-25T05:46:57.890Z,3.20
2022-11-25T05:49:24.658Z,3.57
2022-11-25T05:51:51.484Z,3.10
2022-11-25T05:54:18.275Z,3.23
2022-11-25T05:56:44.969Z,2.60
2022-11-25T05:59:11.706Z,2.90
2022-11-25T06:01:38.413Z,3.93
2022-11-25T06:04:05.623Z,3.10
2022-11-25T06:06:32.727Z,2.47
2022-11-25T06:08:59.894Z,2.57
2022-11-25T06:11:26.765Z,2.60
2022-11-25T06:13:55.854Z,2.90
2022-11-25T06:16:23.770Z,3.03
2022-11-25T06:18:51.353Z,2.90
2022-11-25T06:21:18.372Z,2.77
2022-11-25T06:23:46.160Z,3.33
2022-11-25T06:26:19.494Z,3.30
2022-11-25T06:28:46.810Z,3.77
2022-11-25T06:31:16.433Z,3.87
2022-11-25T06:33:47.058Z,3.10
2022-11-25T06:36:17.297Z,3.63
2022-11-25T06:38:49.350Z,3.63
2022-11-25T06:41:16.489Z,4.17
2022-11-25T06:43:43.233Z,4.30
2022-11-25T06:46:18.533Z,5.13
2022-11-25T06:48:49.967Z,5.73
2022-11-25T06:51:18.287Z,5.97
2022-11-25T06:53:45.723Z,5.77
2022-11-25T06:56:13.450Z,5.37
2022-11-25T06:58:41.201Z,5.27
2022-11-25T07:01:13.909Z,6.27
2022-11-25T07:03:41.589Z,5.90
2022-11-25T07:06:08.393Z,6.87
2022-11-25T07:08:35.574Z,6.43
2022-11-25T07:11:07.439Z,6.00
2022-11-25T07:13:34.406Z,6.40
2022-11-25T07:16:03.167Z,6.13
2022-11-25T07:18:33.043Z,6.30
2022-11-25T07:21:08.772Z,6.63
2022-11-25T07:23:36.973Z,5.10
2022-11-25T07:26:09.086Z,6.20
2022-11-25T07:28:36.973Z,5.90
2022-11-25T07:31:28.621Z,6.03
2022-11-25T07:34:04.483Z,6.40
2022-11-25T07:36:33.154Z,5.53
2022-11-25T07:39:01.682Z,6.97
2022-11-25T07:41:29.300Z,6.37
2022-11-25T07:43:58.123Z,5.93
2022-11-25T07:46:30.910Z,5.83
2022-11-25T07:49:06.174Z,5.80
2022-11-25T07:51:48.351Z,6.07
2022-11-25T07:54:15.513Z,6.07
2022-11-25T07:56:44.800Z,7.07
2022-11-25T07:59:17.823Z,6.33
2022-11-25T08:01:45.084Z,6.87
2022-11-25T08:04:19.690Z,7.20
2022-11-25T08:06:49.219Z,6.40
2022-11-25T08:09:19.469Z,6.03
2022-11-25T08:11:47.413Z,7.43
2022-11-25T08:14:15.585Z,6.10
2022-11-25T08:16:42.900Z,5.97
2022-11-25T08:19:13.960Z,6.00
2022-11-25T08:21:41.068Z,8.43
2022-11-25T08:24:08.060Z,6.37
2022-11-25T08:26:37.695Z,6.90
2022-11-25T08:29:06.456Z,6.23
2022-11-25T08:31:35.846Z,6.77
2022-11-25T08:34:03.333Z,5.43
2022-11-25T08:36:30.964Z,5.83
2022-11-25T08:39:00.170Z,6.10
2022-11-25T08:41:30.235Z,5.23
2022-11-25T08:43:59.073Z,5.73
2022-11-25T08:46:30.228Z,5.80
2022-11-25T08:48:57.107Z,5.90
2022-11-25T08:51:27.085Z,5.90
2022-11-25T08:53:54.524Z,5.70
2022-11-25T08:56:26.236Z,5.80
2022-11-25T08:58:54.960Z,5.77
2022-11-25T09:01:23.672Z,5.87
2022-11-25T09:03:53.093Z,5.60
2022-11-25T09:06:21.249Z,5.97
2022-11-25T09:08:48.856Z,5.80
2022-11-25T09:11:15.851Z,5.77
2022-11-25T09:13:42.764Z,5.73
2022-11-25T09:16:09.774Z,5.60
2022-11-25T09:18:37.419Z,4.20
2022-11-25T09:21:12.981Z,5.53
2022-11-25T09:23:40.332Z,5.03
2022-11-25T09:26:08.537Z,5.90
2022-11-25T09:28:36.645Z,4.67
2022-11-25T09:31:08.504Z,5.80
2022-11-25T09:33:35.686Z,5.10
2022-11-25T09:36:03.812Z,4.93
2022-11-25T09:38:30.995Z,4.67
2022-11-25T09:41:07.937Z,4.53
2022-11-25T09:44:15.143Z,4.70
2022-11-25T09:47:09.214Z,4.70
2022-11-25T09:50:03.219Z,5.00
2022-11-25T09:52:53.266Z,5.10
2022-11-25T09:55:24.071Z,4.63
2022-11-25T09:58:09.598Z,4.40
2022-11-25T10:00:45.825Z,4.50
2022-11-25T10:03:37.532Z,5.10
2022-11-25T10:06:19.054Z,5.90
2022-11-25T10:08:51.716Z,4.83
2022-11-25T10:11:24.323Z,4.20
2022-11-25T10:14:00.678Z,4.90
2022-11-25T10:16:51.575Z,4.93
2022-11-25T10:19:33.116Z,5.23
2022-11-25T10:22:07.918Z,4.80
2022-11-25T10:24:39.852Z,4.10
2022-11-25T10:27:18.046Z,5.47
2022-11-25T10:29:51.083Z,4.73
2022-11-25T10:32:22.730Z,4.33
2022-11-25T10:34:54.323Z,3.87
2022-11-25T10:37:29.427Z,4.70
2022-11-25T10:39:56.806Z,4.63
2022-11-25T10:42:26.826Z,4.10
2022-11-25T10:44:54.954Z,4.77
2022-11-25T10:47:42.525Z,4.93
2022-11-25T10:50:24.719Z,4.83
2022-11-25T10:53:10.393Z,4.30
2022-11-25T10:55:37.446Z,4.23
2022-11-25T10:58:35.217Z,4.27
2022-11-25T11:01:25.628Z,4.23
2022-11-25T11:04:05.598Z,4.03
2022-11-25T11:06:43.259Z,4.17
2022-11-25T11:09:33.792Z,4.17
2022-11-25T11:12:14.618Z,3.70
2022-11-25T11:14:41.910Z,4.47
2022-11-25T11:17:36.033Z,4.50
2022-11-25T11:20:06.788Z,4.13
2022-11-25T11:22:35.579Z,4.57
2022-11-25T11:25:30.261Z,4.03
2022-11-25T11:27:58.234Z,4.03
2022-11-25T11:30:31.645Z,3.80
2022-11-25T11:33:04.722Z,5.17
2022-11-25T11:35:41.946Z,4.43
2022-11-25T11:38:31.367Z,5.03
2022-11-25T11:41:10.976Z,4.20
2022-11-25T11:43:45.636Z,4.60
2022-11-25T11:46:27.492Z,4.50
2022-11-25T11:49:05.875Z,5.03
2022-11-25T11:51:52.609Z,4.27
2022-11-25T11:54:37.006Z,5.10
2022-11-25T11:57:22.937Z,4.40
2022-11-25T11:59:53.518Z,4.80
2022-11-25T12:02:24.329Z,4.63
2022-11-25T12:05:15.794Z,4.77
2022-11-25T12:08:09.819Z,4.27
2022-11-25T12:10:48.407Z,4.93
2022-11-25T12:13:29.012Z,4.70
2022-11-25T12:16:04.831Z,7.30
2022-11-25T12:18:50.470Z,4.73
2022-11-25T12:21:44.516Z,5.47
2022-11-25T12:24:19.814Z,4.80
2022-11-25T12:27:10.769Z,4.53
2022-11-25T12:30:00.768Z,5.17
2022-11-25T12:32:45.621Z,6.07
2022-11-25T12:35:22.523Z,4.77
2022-11-25T12:38:22.166Z,5.23
2022-11-25T12:41:27.943Z,4.73
2022-11-25T12:44:03.599Z,4.63
2022-11-25T12:46:33.090Z,5.23
2022-11-25T12:49:01.795Z,5.67
2022-11-25T12:51:56.383Z,5.00
2022-11-25T12:54:50.656Z,4.43
2022-11-25T12:57:41.959Z,4.40
2022-11-25T13:00:41.394Z,5.00
2022-11-25T13:03:30.423Z,4.73
2022-11-25T13:06:19.950Z,4.63
2022-11-25T13:09:07.783Z,4.77
2022-11-25T13:11:52.970Z,4.87
2022-11-25T13:14:20.096Z,5.37
2022-11-25T13:16:49.529Z,4.93
2022-11-25T13:19:20.296Z,4.83
2022-11-25T13:22:00.831Z,5.27
2022-11-25T13:24:40.533Z,5.37
2022-11-25T13:27:53.102Z,3.63
2022-11-25T13:30:51.649Z,5.23
2022-11-25T13:33:18.328Z,4.40
2022-11-25T13:35:46.099Z,4.80
2022-11-25T13:38:35.753Z,4.60
2022-11-25T13:41:23.160Z,4.50
2022-11-25T13:44:01.669Z,4.33
2022-11-25T13:46:46.277Z,5.47
2022-11-25T13:49:25.381Z,4.60
2022-11-25T13:51:55.353Z,4.10
2022-11-25T13:54:27.254Z,4.70
2022-11-25T13:57:21.744Z,4.30
2022-11-25T13:59:55.574Z,4.40
2022-11-25T14:02:28.159Z,4.87
2022-11-25T14:05:26.148Z,3.93
2022-11-25T14:08:07.905Z,4.23
2022-11-25T14:11:00.124Z,4.30
2022-11-25T14:14:04.411Z,4.50
2022-11-25T14:16:39.007Z,4.40
2022-11-25T14:22:32.853Z,4.57
2022-11-25T14:25:44.218Z,4.20
2022-11-25T14:28:24.938Z,4.63
2022-11-25T14:30:55.898Z,4.47
2022-11-25T14:33:33.227Z,3.83
2022-11-25T14:36:07.753Z,4.30
2022-11-25T14:38:47.054Z,4.93
2022-11-25T14:41:21.098Z,4.80
2022-11-25T14:43:53.978Z,5.40
2022-11-25T14:46:23.340Z,5.10
2022-11-25T14:48:55.403Z,4.07
2022-11-25T14:51:24.158Z,4.83
2022-11-25T14:53:51.989Z,4.10
2022-11-25T14:56:28.984Z,3.93
2022-11-25T14:58:57.890Z,3.93
2022-11-25T15:01:29.743Z,4.07
2022-11-25T15:04:04.513Z,4.07
2022-11-25T15:06:37.659Z,3.77
2022-11-25T15:09:17.772Z,3.77
2022-11-25T15:11:44.740Z,3.77
2022-11-25T15:14:23.215Z,3.97
2022-11-25T15:16:50.100Z,3.67
2022-11-25T15:19:22.613Z,3.80
2022-11-25T15:24:54.751Z,3.73
2022-11-25T15:27:25.243Z,4.20
2022-11-25T15:29:53.297Z,3.90
2022-11-25T15:32:25.753Z,4.23
2022-11-25T15:34:55.719Z,4.93
2022-11-25T15:37:24.038Z,3.80
2022-11-25T15:40:11.086Z,3.83
2022-11-25T15:42:37.800Z,4.23
2022-11-25T15:45:11.286Z,4.80
2022-11-25T15:47:38.026Z,5.60
2022-11-25T15:50:26.368Z,4.23
2022-11-25T15:52:59.870Z,4.80
2022-11-25T15:55:39.981Z,4.87
2022-11-25T15:58:16.435Z,5.17
2022-11-25T16:01:19.811Z,4.83
2022-11-25T16:03:47.622Z,5.60
2022-11-25T16:06:22.219Z,5.40
2022-11-25T16:09:00.127Z,7.23
2022-11-25T16:11:34.054Z,6.63
2022-11-25T16:14:39.391Z,5.53
2022-11-25T16:17:11.245Z,9.03
2022-11-25T16:19:43.284Z,9.30
2022-11-25T16:22:16.764Z,9.00
2022-11-25T16:25:00.392Z,9.73
2022-11-25T16:27:29.830Z,7.87
2022-11-25T16:30:05.889Z,9.33
2022-11-25T16:32:33.867Z,7.40
2022-11-25T16:35:23.631Z,6.33
2022-11-25T16:37:50.378Z,6.87
2022-11-25T16:40:18.420Z,8.47
2022-11-25T16:42:50.202Z,9.30
2022-11-25T16:45:43.431Z,7.57
2022-11-25T16:48:19.943Z,9.10
2022-11-25T16:50:47.098Z,7.23
2022-11-25T16:53:13.920Z,8.90
2022-11-25T16:55:43.197Z,8.88
2022-11-25T16:58:21.967Z,9.45
2022-11-25T17:00:56.490Z,8.23
2022-11-25T17:03:26.961Z,9.73
2022-11-25T17:05:55.211Z,11.57
2022-11-25T17:08:22.383Z,10.53
2022-11-25T17:10:49.853Z,11.23
2022-11-25T17:13:21.754Z,11.43
2022-11-25T17:15:51.690Z,13.45
2022-11-25T17:18:19.276Z,11.73
2022-11-25T17:20:48.943Z,11.47
2022-11-25T17:23:17.129Z,12.63
2022-11-25T17:25:48.523Z,12.30
2022-11-25T17:28:19.207Z,15.43
2022-11-25T17:31:11.209Z,15.07
2022-11-25T17:33:45.926Z,14.67
2022-11-25T17:36:12.684Z,13.17
2022-11-25T17:38:41.217Z,14.30
2022-11-25T17:41:21.910Z,13.60
2022-11-25T17:43:51.859Z,14.43
2022-11-25T17:46:18.887Z,14.50
2022-11-25T17:48:45.969Z,15.23
2022-11-25T17:51:14.396Z,15.57
2022-11-25T17:53:41.863Z,16.23
2022-11-25T17:56:28.247Z,15.50
2022-11-25T17:58:57.162Z,17.17
2022-11-25T18:01:24.265Z,16.07
2022-11-25T18:03:53.088Z,17.63
2022-11-25T18:06:20.627Z,19.70
2022-11-25T18:08:47.565Z,25.13
2022-11-25T18:11:18.470Z,20.33
2022-11-25T18:13:47.050Z,16.03
2022-11-25T18:16:15.795Z,15.93
2022-11-25T18:18:42.611Z,14.30
2022-11-25T18:21:11.581Z,16.00
2022-11-25T18:23:38.309Z,16.23
2022-11-25T18:26:05.381Z,16.33
2022-11-25T18:28:32.692Z,17.70
2022-11-25T18:31:03.847Z,16.10
2022-11-25T18:33:31.967Z,17.67
2022-11-25T18:35:58.900Z,18.13
2022-11-25T18:38:25.768Z,17.30
2022-11-25T18:40:54.134Z,17.43
2022-11-25T18:43:24.971Z,16.70
2022-11-25T18:45:53.612Z,18.53
2022-11-25T18:48:23.279Z,20.43
2022-11-25T18:50:52.091Z,18.10
2022-11-25T18:53:19.023Z,15.90
2022-11-25T18:55:46.851Z,18.83
2022-11-25T18:58:23.649Z,19.53
2022-11-25T19:00:52.082Z,18.20
2022-11-25T19:03:22.035Z,19.13
2022-11-25T19:05:50.025Z,19.23
2022-11-25T19:08:18.576Z,22.97
2022-11-25T19:10:47.386Z,19.97
2022-11-25T19:13:19.692Z,20.83
2022-11-25T19:15:46.907Z,19.97
2022-11-25T19:18:22.754Z,21.10
2022-11-25T19:20:49.490Z,21.07
2022-11-25T19:23:28.862Z,20.43
2022-11-25T19:26:00.387Z,22.23
2022-11-25T19:28:29.273Z,21.87
2022-11-25T19:31:00.092Z,19.47
2022-11-25T19:33:32.291Z,19.20
2022-11-25T19:35:58.988Z,20.37
2022-11-25T19:38:26.259Z,20.67
2022-11-25T19:40:54.614Z,23.10
2022-11-25T19:43:22.772Z,21.43
2022-11-25T19:45:53.295Z,23.13
2022-11-25T19:48:21.419Z,22.63
2022-11-25T19:50:59.238Z,21.40
2022-11-25T19:53:33.111Z,19.73
2022-11-25T19:56:04.085Z,18.40
2022-11-25T19:58:34.127Z,18.83
2022-11-25T20:01:03.437Z,21.33
2022-11-25T20:03:31.651Z,21.53
2022-11-25T20:05:58.868Z,20.60
2022-11-25T20:08:27.853Z,21.03
2022-11-25T20:10:55.710Z,20.53
2022-11-25T20:13:26.251Z,19.43
2022-11-25T20:15:54.850Z,17.60
2022-11-25T20:18:24.483Z,19.13
2022-11-25T20:20:59.608Z,19.90
2022-11-25T20:23:32.714Z,22.00
2022-11-25T20:25:59.630Z,22.23
2022-11-25T20:28:30.066Z,22.60
2022-11-25T20:30:59.142Z,24.07
2022-11-25T20:33:26.875Z,25.10
2022-11-25T20:36:05.719Z,22.67
2022-11-25T20:38:35.223Z,21.40
2022-11-25T20:41:02.378Z,24.67
2022-11-25T20:43:33.433Z,47.33
2022-11-25T20:46:01.623Z,32.57
2022-11-25T20:48:28.903Z,28.17
2022-11-25T20:51:03.207Z,26.20
2022-11-25T20:53:32.108Z,25.40
2022-11-25T20:55:59.960Z,25.47
2022-11-25T20:58:31.907Z,26.63
2022-11-25T21:00:59.474Z,25.40
2022-11-25T21:03:26.786Z,21.50
2022-11-25T21:05:55.437Z,21.00
2022-11-25T21:08:25.279Z,21.27
2022-11-25T21:10:53.983Z,21.07
2022-11-25T21:13:29.353Z,20.40
2022-11-25T21:15:59.296Z,22.03
2022-11-25T21:18:26.054Z,24.83
2022-11-25T21:20:55.318Z,22.70
2022-11-25T21:23:32.365Z,22.93
2022-11-25T21:26:07.545Z,27.40
2022-11-25T21:28:38.469Z,26.43
2022-11-25T21:31:10.985Z,26.43
2022-11-25T21:33:38.243Z,26.37
2022-11-25T21:36:05.250Z,25.93
2022-11-25T21:38:31.977Z,24.47
2022-11-25T21:40:58.863Z,23.60
2022-11-25T21:43:33.191Z,24.33
2022-11-25T21:46:03.260Z,24.53
2022-11-25T21:48:31.095Z,22.67
2022-11-25T21:50:58.678Z,25.83
2022-11-25T21:53:25.739Z,24.00
2022-11-25T21:55:53.216Z,24.33
2022-11-25T21:58:25.236Z,23.33
2022-11-25T22:00:56.255Z,23.53
2022-11-25T22:03:23.966Z,22.67
2022-11-25T22:05:51.194Z,22.90
2022-11-25T22:08:18.136Z,23.80
2022-11-25T22:10:48.765Z,22.87
2022-11-25T22:13:34.129Z,23.83
2022-11-25T22:16:01.633Z,23.33
2022-11-25T22:18:31.972Z,23.83
2022-11-25T22:20:59.335Z,23.23
2022-11-25T22:23:26.418Z,23.10
2022-11-25T22:25:54.323Z,20.53
2022-11-25T22:28:24.745Z,22.33
2022-11-25T22:30:54.345Z,23.67
2022-11-25T22:33:28.170Z,20.70
2022-11-25T22:35:54.882Z,19.87
2022-11-25T22:38:22.907Z,22.40
2022-11-25T22:40:53.212Z,20.60
2022-11-25T22:43:36.228Z,20.83
2022-11-25T22:46:04.884Z,21.10
2022-11-25T22:48:35.317Z,18.80
2022-11-25T22:51:02.673Z,20.77
2022-11-25T22:53:29.620Z,18.97
2022-11-25T22:56:00.023Z,18.77
2022-11-25T22:58:27.740Z,18.80
2022-11-25T23:00:55.882Z,19.47
2022-11-25T23:03:33.329Z,20.77
2022-11-25T23:06:01.766Z,19.03
2022-11-25T23:08:31.590Z,18.57
2022-11-25T23:10:58.368Z,19.70
2022-11-25T23:13:25.143Z,19.47
2022-11-25T23:15:58.184Z,18.90
2022-11-25T23:18:39.907Z,19.90
2022-11-25T23:21:23.763Z,18.97
2022-11-25T23:23:51.264Z,18.90
2022-11-25T23:26:18.004Z,18.87
2022-11-25T23:28:44.949Z,18.67
2022-11-25T23:31:16.524Z,20.33
2022-11-25T23:33:50.637Z,18.67
2022-11-25T23:36:24.012Z,18.93
2022-11-25T23:38:56.767Z,18.90
2022-11-25T23:41:26.614Z,20.07
2022-11-25T23:43:54.045Z,18.67
2022-11-25T23:46:24.576Z,19.07
2022-11-25T23:48:58.102Z,19.80
2022-11-25T23:51:26.853Z,21.60
2022-11-25T23:53:55.631Z,20.67
2022-11-25T23:56:23.237Z,20.77
2022-11-25T23:58:50.482Z,18.80
